sensor_id;sensor_type;location;lat;lon;timestamp;pressure;altitude;pressure_sealevel;temperature;humidity
68859;BME280;55864;49.238;8.092;2024-03-23T00:55:15;98567.13;;;13.07;74.22
68859;BME280;55864;49.238;8.092;2024-03-23T00:57:15;98560.22;;;13.06;74.20
68859;BME280;55864;49.238;8.092;2024-03-23T00:59:16;98556.31;;;13.17;73.86
68859;BME280;55864;49.238;8.092;2024-03-23T01:01:16;98561.03;;;13.21;73.78
68859;BME280;55864;49.238;8.092;2024-03-23T01:03:17;98562.25;;;13.19;73.98
68859;BME280;55864;49.238;8.092;2024-03-23T01:05:17;98550.16;;;13.25;73.19
68859;BME280;55864;49.238;8.092;2024-03-23T01:07:18;98554.84;;;13.14;74.13
68859;BME280;55864;49.238;8.092;2024-03-23T01:09:18;98548.69;;;13.22;73.57
68859;BME280;55864;49.238;8.092;2024-03-23T01:11:20;98539.50;;;13.33;73.10
68859;BME280;55864;49.238;8.092;2024-03-23T01:13:21;98546.69;;;13.24;72.79
68859;BME280;55864;49.238;8.092;2024-03-23T01:15:21;98536.66;;;12.68;74.72
68859;BME280;55864;49.238;8.092;2024-03-23T01:17:22;98541.34;;;12.58;76.49
68859;BME280;55864;49.238;8.092;2024-03-23T01:19:22;98526.22;;;12.74;75.96
68859;BME280;55864;49.238;8.092;2024-03-23T01:21:23;98530.84;;;12.72;75.95
68859;BME280;55864;49.238;8.092;2024-03-23T01:23:23;98532.16;;;12.91;75.73
68859;BME280;55864;49.238;8.092;2024-03-23T01:25:24;98521.78;;;12.89;77.18
68859;BME280;55864;49.238;8.092;2024-03-23T01:27:26;98526.06;;;12.90;77.44
68859;BME280;55864;49.238;8.092;2024-03-23T01:29:26;98525.50;;;12.80;77.34
68859;BME280;55864;49.238;8.092;2024-03-23T01:31:27;98528.25;;;12.87;76.74
68859;BME280;55864;49.238;8.092;2024-03-23T01:33:27;98524.81;;;13.01;76.71
68859;BME280;55864;49.238;8.092;2024-03-23T01:35:28;98521.56;;;13.13;76.51
68859;BME280;55864;49.238;8.092;2024-03-23T01:37:28;98518.47;;;13.10;75.83
68859;BME280;55864;49.238;8.092;2024-03-23T01:39:29;98520.25;;;12.80;77.65
68859;BME280;55864;49.238;8.092;2024-03-23T01:41:29;98525.03;;;13.14;76.00
68859;BME280;55864;49.238;8.092;2024-03-23T01:43:31;98524.69;;;13.17;75.49
68859;BME280;55864;49.238;8.092;2024-03-23T01:45:32;98512.84;;;13.28;74.53
68859;BME280;55864;49.238;8.092;2024-03-23T01:47:32;98514.84;;;13.40;74.34
68859;BME280;55864;49.238;8.092;2024-03-23T01:49:33;98515.47;;;13.42;74.14
68859;BME280;55864;49.238;8.092;2024-03-23T01:51:34;98517.47;;;13.55;73.45
68859;BME280;55864;49.238;8.092;2024-03-23T01:53:35;98516.47;;;13.12;74.75
68859;BME280;55864;49.238;8.092;2024-03-23T01:55:36;98517.19;;;13.06;74.89
68859;BME280;55864;49.238;8.092;2024-03-23T01:57:40;98521.31;;;13.38;74.17
68859;BME280;55864;49.238;8.092;2024-03-23T01:59:42;98511.94;;;13.35;73.62
68859;BME280;55864;49.238;8.092;2024-03-23T02:01:44;98501.41;;;13.20;74.89
68859;BME280;55864;49.238;8.092;2024-03-23T02:03:45;98498.63;;;12.99;75.31
68859;BME280;55864;49.238;8.092;2024-03-23T02:05:45;98496.31;;;13.19;74.60
68859;BME280;55864;49.238;8.092;2024-03-23T02:07:46;98489.06;;;12.84;76.58
68859;BME280;55864;49.238;8.092;2024-03-23T02:09:47;98493.16;;;12.86;76.24
68859;BME280;55864;49.238;8.092;2024-03-23T02:11:47;98490.34;;;13.02;76.23
68859;BME280;55864;49.238;8.092;2024-03-23T02:13:48;98499.41;;;12.85;75.62
68859;BME280;55864;49.238;8.092;2024-03-23T02:15:50;98491.97;;;12.89;76.08
68859;BME280;55864;49.238;8.092;2024-03-23T02:17:50;98495.50;;;12.81;76.16
68859;BME280;55864;49.238;8.092;2024-03-23T02:19:51;98495.63;;;12.88;76.72
68859;BME280;55864;49.238;8.092;2024-03-23T02:21:51;98491.16;;;12.88;76.53
68859;BME280;55864;49.238;8.092;2024-03-23T02:23:53;98487.84;;;13.09;75.45
68859;BME280;55864;49.238;8.092;2024-03-23T02:25:54;98486.13;;;13.16;75.33
68859;BME280;55864;49.238;8.092;2024-03-23T02:27:54;98480.56;;;13.11;74.88
68859;BME280;55864;49.238;8.092;2024-03-23T02:29:55;98490.84;;;13.06;75.60
68859;BME280;55864;49.238;8.092;2024-03-23T02:31:55;98480.66;;;13.03;75.70
68859;BME280;55864;49.238;8.092;2024-03-23T02:33:56;98488.09;;;12.99;75.11
68859;BME280;55864;49.238;8.092;2024-03-23T02:35:56;98486.81;;;12.95;75.20
68859;BME280;55864;49.238;8.092;2024-03-23T02:37:57;98486.88;;;12.73;77.20
68859;BME280;55864;49.238;8.092;2024-03-23T02:39:59;98484.44;;;12.86;76.56
68859;BME280;55864;49.238;8.092;2024-03-23T02:42:02;98485.25;;;12.86;76.10
68859;BME280;55864;49.238;8.092;2024-03-23T02:44:02;98477.88;;;12.96;75.78
68859;BME280;55864;49.238;8.092;2024-03-23T02:46:06;98487.06;;;13.00;75.28
68859;BME280;55864;49.238;8.092;2024-03-23T02:48:07;98480.88;;;12.79;76.08
68859;BME280;55864;49.238;8.092;2024-03-23T02:50:08;98477.94;;;12.74;76.29
68859;BME280;55864;49.238;8.092;2024-03-23T02:52:09;98478.91;;;12.81;75.33
68859;BME280;55864;49.238;8.092;2024-03-23T02:54:09;98473.78;;;12.79;75.47
68859;BME280;55864;49.238;8.092;2024-03-23T02:56:11;98472.91;;;12.87;74.49
68859;BME280;55864;49.238;8.092;2024-03-23T02:58:12;98469.47;;;12.49;76.70
68859;BME280;55864;49.238;8.092;2024-03-23T03:00:12;98477.41;;;12.64;75.02
68859;BME280;55864;49.238;8.092;2024-03-23T03:02:13;98473.44;;;12.68;75.15
68859;BME280;55864;49.238;8.092;2024-03-23T03:04:14;98471.81;;;12.44;75.58
68859;BME280;55864;49.238;8.092;2024-03-23T03:06:23;98477.47;;;12.56;74.78
68859;BME280;55864;49.238;8.092;2024-03-23T03:08:23;98486.47;;;12.47;75.08
68859;BME280;55864;49.238;8.092;2024-03-23T03:10:24;98497.28;;;12.66;75.00
68859;BME280;55864;49.238;8.092;2024-03-23T03:12:25;98493.28;;;12.56;75.07
68859;BME280;55864;49.238;8.092;2024-03-23T03:14:26;98489.75;;;12.49;76.29
68859;BME280;55864;49.238;8.092;2024-03-23T03:16:27;98486.00;;;12.43;76.35
68859;BME280;55864;49.238;8.092;2024-03-23T03:18:27;98479.06;;;12.42;76.68
68859;BME280;55864;49.238;8.092;2024-03-23T03:20:28;98477.75;;;12.61;75.67
68859;BME280;55864;49.238;8.092;2024-03-23T03:22:28;98475.09;;;12.46;76.49
68859;BME280;55864;49.238;8.092;2024-03-23T03:24:29;98476.22;;;12.29;77.14
68859;BME280;55864;49.238;8.092;2024-03-23T03:26:29;98471.16;;;12.27;76.36
68859;BME280;55864;49.238;8.092;2024-03-23T03:28:32;98467.97;;;12.32;76.50
68859;BME280;55864;49.238;8.092;2024-03-23T03:30:32;98470.78;;;12.30;76.75
68859;BME280;55864;49.238;8.092;2024-03-23T03:32:33;98461.59;;;12.26;77.01
68859;BME280;55864;49.238;8.092;2024-03-23T03:34:33;98458.31;;;12.24;77.01
68859;BME280;55864;49.238;8.092;2024-03-23T03:36:34;98446.16;;;12.23;76.87
68859;BME280;55864;49.238;8.092;2024-03-23T03:38:35;98446.59;;;12.12;77.50
68859;BME280;55864;49.238;8.092;2024-03-23T03:40:35;98439.59;;;12.19;77.70
68859;BME280;55864;49.238;8.092;2024-03-23T03:42:36;98435.56;;;12.32;77.53
68859;BME280;55864;49.238;8.092;2024-03-23T03:44:38;98427.66;;;12.32;77.24
68859;BME280;55864;49.238;8.092;2024-03-23T03:46:38;98437.19;;;12.32;76.33
68859;BME280;55864;49.238;8.092;2024-03-23T03:48:39;98435.63;;;12.23;76.80
68859;BME280;55864;49.238;8.092;2024-03-23T03:50:39;98425.53;;;12.12;76.99
68859;BME280;55864;49.238;8.092;2024-03-23T03:52:40;98421.78;;;12.07;77.22
68859;BME280;55864;49.238;8.092;2024-03-23T03:54:40;98437.22;;;12.10;75.84
68859;BME280;55864;49.238;8.092;2024-03-23T03:56:41;98428.50;;;12.09;75.91
68859;BME280;55864;49.238;8.092;2024-03-23T03:58:42;98429.88;;;12.05;76.39
68859;BME280;55864;49.238;8.092;2024-03-23T04:00:44;98426.38;;;11.90;76.85
68859;BME280;55864;49.238;8.092;2024-03-23T04:02:44;98425.31;;;11.99;76.95
68859;BME280;55864;49.238;8.092;2024-03-23T04:04:45;98435.00;;;11.99;76.79
68859;BME280;55864;49.238;8.092;2024-03-23T04:06:45;98440.88;;;11.86;77.08
68859;BME280;55864;49.238;8.092;2024-03-23T04:08:46;98426.38;;;11.90;77.21
68859;BME280;55864;49.238;8.092;2024-03-23T04:10:47;98430.91;;;11.74;77.73
68859;BME280;55864;49.238;8.092;2024-03-23T04:12:48;98427.06;;;11.84;77.86
68859;BME280;55864;49.238;8.092;2024-03-23T04:14:48;98427.81;;;11.70;78.44
68859;BME280;55864;49.238;8.092;2024-03-23T04:16:50;98440.38;;;11.83;77.50
68859;BME280;55864;49.238;8.092;2024-03-23T04:18:50;98463.47;;;11.65;79.48
68859;BME280;55864;49.238;8.092;2024-03-23T04:20:51;98470.50;;;11.80;78.80
68859;BME280;55864;49.238;8.092;2024-03-23T04:22:52;98451.16;;;11.73;79.48
68859;BME280;55864;49.238;8.092;2024-03-23T04:24:53;98450.31;;;11.73;79.79
68859;BME280;55864;49.238;8.092;2024-03-23T04:26:53;98446.63;;;11.51;80.74
68859;BME280;55864;49.238;8.092;2024-03-23T04:28:54;98463.22;;;11.52;80.78
68859;BME280;55864;49.238;8.092;2024-03-23T04:30:54;98457.50;;;11.48;81.18
68859;BME280;55864;49.238;8.092;2024-03-23T04:32:56;98461.47;;;12.05;85.04
68859;BME280;55864;49.238;8.092;2024-03-23T04:34:56;98466.94;;;12.56;76.70
68859;BME280;55864;49.238;8.092;2024-03-23T04:36:57;98459.31;;;12.23;77.19
68859;BME280;55864;49.238;8.092;2024-03-23T04:38:59;98478.88;;;12.06;78.14
68859;BME280;55864;49.238;8.092;2024-03-23T04:41:00;98483.22;;;11.69;78.47
68859;BME280;55864;49.238;8.092;2024-03-23T04:43:00;98478.78;;;11.61;78.93
68859;BME280;55864;49.238;8.092;2024-03-23T04:45:01;98487.56;;;11.54;79.68
68859;BME280;55864;49.238;8.092;2024-03-23T04:47:01;98484.31;;;11.44;80.14
68859;BME280;55864;49.238;8.092;2024-03-23T04:49:03;98490.75;;;11.41;80.34
68859;BME280;55864;49.238;8.092;2024-03-23T04:51:04;98484.31;;;11.44;80.52
68859;BME280;55864;49.238;8.092;2024-03-23T04:53:04;98497.53;;;11.27;80.50
68859;BME280;55864;49.238;8.092;2024-03-23T04:55:05;98510.69;;;11.19;82.14
68859;BME280;55864;49.238;8.092;2024-03-23T04:57:06;98511.81;;;11.33;81.69
68859;BME280;55864;49.238;8.092;2024-03-23T04:59:06;98514.00;;;11.13;81.32
68859;BME280;55864;49.238;8.092;2024-03-23T05:01:07;98520.81;;;10.76;82.50
68859;BME280;55864;49.238;8.092;2024-03-23T05:03:07;98515.31;;;11.09;82.59
68859;BME280;55864;49.238;8.092;2024-03-23T05:05:10;98522.81;;;11.28;81.85
68859;BME280;55864;49.238;8.092;2024-03-23T05:07:10;98506.91;;;11.22;82.10
68859;BME280;55864;49.238;8.092;2024-03-23T05:09:11;98515.13;;;11.11;81.69
68859;BME280;55864;49.238;8.092;2024-03-23T05:11:11;98506.00;;;10.91;81.61
68859;BME280;55864;49.238;8.092;2024-03-23T05:13:12;98500.53;;;11.16;80.62
68859;BME280;55864;49.238;8.092;2024-03-23T05:15:12;98500.38;;;11.10;80.37
68859;BME280;55864;49.238;8.092;2024-03-23T05:17:13;98498.75;;;11.01;80.52
68859;BME280;55864;49.238;8.092;2024-03-23T05:19:13;98495.47;;;10.99;80.91
68859;BME280;55864;49.238;8.092;2024-03-23T05:21:15;98496.81;;;10.95;80.51
68859;BME280;55864;49.238;8.092;2024-03-23T05:23:16;98498.28;;;10.89;80.30
68859;BME280;55864;49.238;8.092;2024-03-23T05:25:17;98496.81;;;10.79;80.88
68859;BME280;55864;49.238;8.092;2024-03-23T05:27:17;98508.44;;;10.92;79.64
68859;BME280;55864;49.238;8.092;2024-03-23T05:29:18;98501.09;;;10.88;79.61
68859;BME280;55864;49.238;8.092;2024-03-23T05:33:24;98519.16;;;10.83;79.16
68859;BME280;55864;49.238;8.092;2024-03-23T05:35:25;98523.59;;;10.58;80.15
68859;BME280;55864;49.238;8.092;2024-03-23T05:37:27;98529.38;;;10.62;78.95
68859;BME280;55864;49.238;8.092;2024-03-23T05:39:28;98535.25;;;10.72;77.48
68859;BME280;55864;49.238;8.092;2024-03-23T05:41:29;98534.09;;;10.66;76.94
68859;BME280;55864;49.238;8.092;2024-03-23T05:43:29;98546.59;;;10.64;76.63
68859;BME280;55864;49.238;8.092;2024-03-23T05:45:30;98546.09;;;10.53;76.50
68859;BME280;55864;49.238;8.092;2024-03-23T05:47:30;98557.91;;;10.49;76.74
68859;BME280;55864;49.238;8.092;2024-03-23T05:49:31;98573.50;;;10.42;75.95
68859;BME280;55864;49.238;8.092;2024-03-23T05:51:31;98569.09;;;10.43;74.94
68859;BME280;55864;49.238;8.092;2024-03-23T05:53:34;98581.19;;;10.27;75.29
68859;BME280;55864;49.238;8.092;2024-03-23T05:55:35;98589.06;;;10.35;74.76
68859;BME280;55864;49.238;8.092;2024-03-23T05:57:35;98591.69;;;10.35;74.94
68859;BME280;55864;49.238;8.092;2024-03-23T05:59:36;98600.88;;;10.31;74.35
68859;BME280;55864;49.238;8.092;2024-03-23T06:01:36;98615.00;;;10.30;74.18
68859;BME280;55864;49.238;8.092;2024-03-23T06:03:37;98629.94;;;9.96;75.00
68859;BME280;55864;49.238;8.092;2024-03-23T06:05:38;98630.94;;;10.03;74.78
68859;BME280;55864;49.238;8.092;2024-03-23T06:07:38;98620.34;;;10.13;74.72
68859;BME280;55864;49.238;8.092;2024-03-23T06:09:40;98611.69;;;10.20;73.26
68859;BME280;55864;49.238;8.092;2024-03-23T06:11:41;98599.22;;;10.22;72.63
68859;BME280;55864;49.238;8.092;2024-03-23T06:13:41;98611.69;;;10.28;71.66
68859;BME280;55864;49.238;8.092;2024-03-23T06:15:42;98601.69;;;10.16;72.09
68859;BME280;55864;49.238;8.092;2024-03-23T06:17:43;98613.84;;;9.83;72.02
68859;BME280;55864;49.238;8.092;2024-03-23T06:19:43;98629.81;;;10.06;71.67
68859;BME280;55864;49.238;8.092;2024-03-23T06:21:44;98637.75;;;10.14;71.45
68859;BME280;55864;49.238;8.092;2024-03-23T06:23:45;98655.22;;;9.97;71.83
68859;BME280;55864;49.238;8.092;2024-03-23T06:25:47;98646.19;;;10.00;72.01
68859;BME280;55864;49.238;8.092;2024-03-23T06:27:47;98657.63;;;9.91;71.82
68859;BME280;55864;49.238;8.092;2024-03-23T06:29:48;98665.34;;;9.92;72.97
68859;BME280;55864;49.238;8.092;2024-03-23T06:31:53;98676.50;;;9.94;73.56
68859;BME280;55864;49.238;8.092;2024-03-23T06:33:55;98686.09;;;9.78;76.10
68859;BME280;55864;49.238;8.092;2024-03-23T06:35:55;98681.69;;;9.86;78.25
68859;BME280;55864;49.238;8.092;2024-03-23T06:37:56;98700.00;;;9.70;77.72
68859;BME280;55864;49.238;8.092;2024-03-23T06:39:56;98705.22;;;9.70;77.85
68859;BME280;55864;49.238;8.092;2024-03-23T06:41:58;98705.75;;;9.74;78.27
68859;BME280;55864;49.238;8.092;2024-03-23T06:43:59;98706.56;;;9.74;78.73
68859;BME280;55864;49.238;8.092;2024-03-23T06:45:59;98730.06;;;9.58;78.17
68859;BME280;55864;49.238;8.092;2024-03-23T06:48:00;98745.50;;;9.61;77.86
68859;BME280;55864;49.238;8.092;2024-03-23T06:50:01;98754.22;;;9.70;78.84
68859;BME280;55864;49.238;8.092;2024-03-23T06:52:02;98760.19;;;9.54;78.72
68859;BME280;55864;49.238;8.092;2024-03-23T06:54:03;98765.13;;;9.57;77.08
68859;BME280;55864;49.238;8.092;2024-03-23T06:56:04;98771.09;;;9.67;79.11
68859;BME280;55864;49.238;8.092;2024-03-23T06:58:06;98774.28;;;9.79;74.69
68859;BME280;55864;49.238;8.092;2024-03-23T07:00:07;98773.34;;;9.62;72.89
68859;BME280;55864;49.238;8.092;2024-03-23T07:02:08;98784.88;;;9.69;73.95
68859;BME280;55864;49.238;8.092;2024-03-23T07:04:08;98791.47;;;9.73;75.12
68859;BME280;55864;49.238;8.092;2024-03-23T07:06:09;98784.38;;;9.91;74.45
68859;BME280;55864;49.238;8.092;2024-03-23T07:08:10;98785.50;;;9.89;73.98
68859;BME280;55864;49.238;8.092;2024-03-23T07:10:10;98790.31;;;10.01;73.41
68859;BME280;55864;49.238;8.092;2024-03-23T07:12:11;98782.00;;;10.06;71.34
68859;BME280;55864;49.238;8.092;2024-03-23T07:14:13;98793.03;;;9.84;73.09
68859;BME280;55864;49.238;8.092;2024-03-23T07:16:13;98798.13;;;9.68;73.42
68859;BME280;55864;49.238;8.092;2024-03-23T07:18:14;98811.84;;;9.79;70.68
68859;BME280;55864;49.238;8.092;2024-03-23T07:20:14;98818.00;;;9.70;71.63
68859;BME280;55864;49.238;8.092;2024-03-23T07:22:15;98823.53;;;9.67;73.31
68859;BME280;55864;49.238;8.092;2024-03-23T07:24:15;98830.53;;;9.84;72.53
68859;BME280;55864;49.238;8.092;2024-03-23T07:26:16;98834.16;;;9.83;71.42
68859;BME280;55864;49.238;8.092;2024-03-23T07:28:16;98827.63;;;9.87;71.32
68859;BME280;55864;49.238;8.092;2024-03-23T07:30:18;98834.47;;;10.06;72.02
68859;BME280;55864;49.238;8.092;2024-03-23T07:32:19;98852.94;;;10.14;70.67
68859;BME280;55864;49.238;8.092;2024-03-23T07:34:19;98860.41;;;10.26;69.42
68859;BME280;55864;49.238;8.092;2024-03-23T07:36:20;98847.09;;;10.02;67.53
68859;BME280;55864;49.238;8.092;2024-03-23T07:38:21;98862.34;;;9.81;70.14
68859;BME280;55864;49.238;8.092;2024-03-23T07:40:21;98868.84;;;9.77;69.10
68859;BME280;55864;49.238;8.092;2024-03-23T07:42:22;98878.81;;;9.91;68.36
68859;BME280;55864;49.238;8.092;2024-03-23T07:44:22;98885.25;;;9.97;65.90
68859;BME280;55864;49.238;8.092;2024-03-23T07:46:24;98880.97;;;10.13;66.95
68859;BME280;55864;49.238;8.092;2024-03-23T07:48:25;98891.94;;;10.34;67.45
68859;BME280;55864;49.238;8.092;2024-03-23T07:50:25;98886.53;;;10.36;64.23
68859;BME280;55864;49.238;8.092;2024-03-23T07:52:28;98891.22;;;10.24;64.57
68859;BME280;55864;49.238;8.092;2024-03-23T07:54:28;98893.47;;;10.45;64.87
68859;BME280;55864;49.238;8.092;2024-03-23T07:56:29;98894.06;;;10.31;64.31
68859;BME280;55864;49.238;8.092;2024-03-23T07:58:29;98899.69;;;10.18;63.09
68859;BME280;55864;49.238;8.092;2024-03-23T08:00:30;98910.38;;;10.43;62.98
68859;BME280;55864;49.238;8.092;2024-03-23T08:02:32;98911.34;;;10.41;63.40
68859;BME280;55864;49.238;8.092;2024-03-23T08:04:33;98918.97;;;10.53;62.93
68859;BME280;55864;49.238;8.092;2024-03-23T08:06:33;98925.63;;;10.65;62.48
68859;BME280;55864;49.238;8.092;2024-03-23T08:08:34;98929.69;;;10.93;61.52
68859;BME280;55864;49.238;8.092;2024-03-23T08:10:34;98928.44;;;11.05;60.46
68859;BME280;55864;49.238;8.092;2024-03-23T08:12:35;98926.59;;;10.97;60.80
68859;BME280;55864;49.238;8.092;2024-03-23T08:14:35;98941.88;;;11.02;59.83
68859;BME280;55864;49.238;8.092;2024-03-23T08:16:36;98951.56;;;10.93;60.04
68859;BME280;55864;49.238;8.092;2024-03-23T08:18:37;98945.47;;;10.93;59.85
68859;BME280;55864;49.238;8.092;2024-03-23T08:20:38;98944.94;;;11.23;57.94
68859;BME280;55864;49.238;8.092;2024-03-23T08:22:39;98945.91;;;11.14;58.83
68859;BME280;55864;49.238;8.092;2024-03-23T08:24:39;98955.34;;;10.99;59.12
68859;BME280;55864;49.238;8.092;2024-03-23T08:26:40;98957.50;;;11.03;57.74
68859;BME280;55864;49.238;8.092;2024-03-23T08:28:40;98944.28;;;11.21;58.33
68859;BME280;55864;49.238;8.092;2024-03-23T08:30:41;98958.78;;;11.33;57.69
68859;BME280;55864;49.238;8.092;2024-03-23T08:32:41;98960.16;;;11.53;57.41
68859;BME280;55864;49.238;8.092;2024-03-23T08:34:43;98959.94;;;11.88;55.85
68859;BME280;55864;49.238;8.092;2024-03-23T08:36:44;98962.75;;;12.03;54.96
68859;BME280;55864;49.238;8.092;2024-03-23T08:38:45;98975.91;;;12.03;54.48
68859;BME280;55864;49.238;8.092;2024-03-23T08:40:46;98971.47;;;11.95;54.61
68859;BME280;55864;49.238;8.092;2024-03-23T08:42:46;98969.16;;;12.00;52.98
68859;BME280;55864;49.238;8.092;2024-03-23T08:44:47;98978.22;;;12.06;53.21
68859;BME280;55864;49.238;8.092;2024-03-23T08:46:48;98976.47;;;11.65;53.34
68859;BME280;55864;49.238;8.092;2024-03-23T08:48:48;98960.59;;;11.82;54.62
68859;BME280;55864;49.238;8.092;2024-03-23T08:51:00;98960.94;;;12.19;54.01
68859;BME280;55864;49.238;8.092;2024-03-23T08:53:00;98954.69;;;12.45;52.01
68859;BME280;55864;49.238;8.092;2024-03-23T08:55:01;98953.59;;;12.86;52.12
68859;BME280;55864;49.238;8.092;2024-03-23T08:57:01;98960.53;;;12.87;49.36
68859;BME280;55864;49.238;8.092;2024-03-23T08:59:02;98966.00;;;12.61;48.46
68859;BME280;55864;49.238;8.092;2024-03-23T09:01:03;98974.44;;;12.32;49.04
68859;BME280;55864;49.238;8.092;2024-03-23T09:03:04;98976.72;;;12.44;48.50
68859;BME280;55864;49.238;8.092;2024-03-23T09:05:05;98982.31;;;12.57;49.94
68859;BME280;55864;49.238;8.092;2024-03-23T09:07:07;98975.94;;;12.43;49.60
68859;BME280;55864;49.238;8.092;2024-03-23T09:09:08;98984.66;;;12.27;50.33
68859;BME280;55864;49.238;8.092;2024-03-23T09:11:10;98993.38;;;12.44;49.46
68859;BME280;55864;49.238;8.092;2024-03-23T09:13:10;98983.78;;;12.67;48.35
68859;BME280;55864;49.238;8.092;2024-03-23T09:15:11;98991.84;;;12.74;48.41
68859;BME280;55864;49.238;8.092;2024-03-23T09:17:11;98989.59;;;12.55;47.44
68859;BME280;55864;49.238;8.092;2024-03-23T09:19:12;99003.41;;;12.32;46.58
68859;BME280;55864;49.238;8.092;2024-03-23T09:21:13;99010.59;;;11.82;47.74
68859;BME280;55864;49.238;8.092;2024-03-23T09:23:14;99019.97;;;11.51;47.52
68859;BME280;55864;49.238;8.092;2024-03-23T09:25:15;99010.50;;;11.58;47.32
68859;BME280;55864;49.238;8.092;2024-03-23T09:27:16;99020.66;;;11.19;47.39
68859;BME280;55864;49.238;8.092;2024-03-23T09:29:16;99016.75;;;11.23;48.58
68859;BME280;55864;49.238;8.092;2024-03-23T09:31:17;99001.53;;;11.43;47.80
68859;BME280;55864;49.238;8.092;2024-03-23T09:33:17;99010.88;;;11.37;47.49
68859;BME280;55864;49.238;8.092;2024-03-23T09:35:18;99012.72;;;11.37;48.05
68859;BME280;55864;49.238;8.092;2024-03-23T09:37:18;99006.78;;;11.43;48.79
68859;BME280;55864;49.238;8.092;2024-03-23T09:39:21;99009.78;;;11.48;49.60
68859;BME280;55864;49.238;8.092;2024-03-23T09:41:21;99003.59;;;11.23;50.80
68859;BME280;55864;49.238;8.092;2024-03-23T09:43:22;99006.13;;;11.07;50.86
68859;BME280;55864;49.238;8.092;2024-03-23T09:45:27;98998.44;;;11.48;51.05
68859;BME280;55864;49.238;8.092;2024-03-23T09:47:28;98999.56;;;10.78;50.97
68859;BME280;55864;49.238;8.092;2024-03-23T09:49:29;98994.88;;;11.23;50.29
68859;BME280;55864;49.238;8.092;2024-03-23T09:51:29;99005.34;;;11.07;49.88
68859;BME280;55864;49.238;8.092;2024-03-23T09:53:30;98996.50;;;10.90;49.14
68859;BME280;55864;49.238;8.092;2024-03-23T09:55:33;98997.19;;;11.18;48.56
68859;BME280;55864;49.238;8.092;2024-03-23T09:57:33;98999.31;;;11.22;48.80
68859;BME280;55864;49.238;8.092;2024-03-23T09:59:34;98983.59;;;11.30;48.91
68859;BME280;55864;49.238;8.092;2024-03-23T10:01:34;98991.38;;;11.48;47.83
68859;BME280;55864;49.238;8.092;2024-03-23T10:03:42;98990.47;;;11.65;47.26
68859;BME280;55864;49.238;8.092;2024-03-23T10:05:43;98985.91;;;11.42;49.02
68859;BME280;55864;49.238;8.092;2024-03-23T10:07:44;98982.97;;;11.86;49.10
68859;BME280;55864;49.238;8.092;2024-03-23T10:09:45;98986.75;;;12.00;46.88
68859;BME280;55864;49.238;8.092;2024-03-23T10:11:47;98982.00;;;12.27;48.65
68859;BME280;55864;49.238;8.092;2024-03-23T10:13:48;98989.22;;;12.74;49.26
68859;BME280;55864;49.238;8.092;2024-03-23T10:15:54;98990.81;;;13.15;47.79
68859;BME280;55864;49.238;8.092;2024-03-23T10:17:55;98989.97;;;13.23;47.70
68859;BME280;55864;49.238;8.092;2024-03-23T10:19:56;98980.91;;;13.01;46.85
68859;BME280;55864;49.238;8.092;2024-03-23T10:21:58;98974.00;;;13.00;46.95
68859;BME280;55864;49.238;8.092;2024-03-23T10:24:07;98975.13;;;13.21;47.28
68859;BME280;55864;49.238;8.092;2024-03-23T10:26:16;98970.72;;;12.98;46.50
68859;BME280;55864;49.238;8.092;2024-03-23T10:28:18;98971.50;;;13.53;46.11
68859;BME280;55864;49.238;8.092;2024-03-23T10:30:21;98974.72;;;13.71;43.81
68859;BME280;55864;49.238;8.092;2024-03-23T10:32:21;98968.09;;;13.45;42.76
68859;BME280;55864;49.238;8.092;2024-03-23T10:34:25;98961.88;;;13.38;43.52
68859;BME280;55864;49.238;8.092;2024-03-23T10:36:26;98958.09;;;12.77;42.76
68859;BME280;55864;49.238;8.092;2024-03-23T10:38:26;98979.34;;;12.68;45.23
68859;BME280;55864;49.238;8.092;2024-03-23T10:40:27;98964.69;;;12.73;46.60
68859;BME280;55864;49.238;8.092;2024-03-23T10:42:30;98978.34;;;12.61;45.44
68859;BME280;55864;49.238;8.092;2024-03-23T10:44:32;98978.25;;;12.30;44.27
68859;BME280;55864;49.238;8.092;2024-03-23T10:46:33;98988.94;;;12.45;43.15
68859;BME280;55864;49.238;8.092;2024-03-23T10:48:33;98976.75;;;12.27;41.07
68859;BME280;55864;49.238;8.092;2024-03-23T10:50:34;98986.78;;;12.40;41.88
68859;BME280;55864;49.238;8.092;2024-03-23T10:52:35;98974.94;;;12.60;41.02
68859;BME280;55864;49.238;8.092;2024-03-23T10:54:36;98974.13;;;12.27;41.06
68859;BME280;55864;49.238;8.092;2024-03-23T10:56:39;98990.25;;;12.41;40.75
68859;BME280;55864;49.238;8.092;2024-03-23T10:58:42;98981.97;;;12.76;41.08
68859;BME280;55864;49.238;8.092;2024-03-23T11:00:44;98975.00;;;12.91;40.47
68859;BME280;55864;49.238;8.092;2024-03-23T11:02:45;98972.91;;;12.78;40.10
68859;BME280;55864;49.238;8.092;2024-03-23T11:04:45;98963.91;;;12.49;41.41
68859;BME280;55864;49.238;8.092;2024-03-23T11:06:46;98972.44;;;12.59;41.13
68859;BME280;55864;49.238;8.092;2024-03-23T11:08:47;98965.13;;;12.93;42.19
68859;BME280;55864;49.238;8.092;2024-03-23T11:10:47;98964.81;;;12.88;41.33
68859;BME280;55864;49.238;8.092;2024-03-23T11:12:48;98965.81;;;12.79;41.27
68859;BME280;55864;49.238;8.092;2024-03-23T11:14:49;98964.16;;;12.78;42.26
68859;BME280;55864;49.238;8.092;2024-03-23T11:17:08;98960.84;;;12.92;41.51
68859;BME280;55864;49.238;8.092;2024-03-23T11:19:33;98960.63;;;13.56;40.54
68859;BME280;55864;49.238;8.092;2024-03-23T11:21:52;98954.06;;;13.75;41.43
68859;BME280;55864;49.238;8.092;2024-03-23T11:23:52;98952.56;;;13.50;40.43
68859;BME280;55864;49.238;8.092;2024-03-23T11:25:53;98951.69;;;13.57;39.80
68859;BME280;55864;49.238;8.092;2024-03-23T11:27:54;98955.97;;;13.66;39.21
68859;BME280;55864;49.238;8.092;2024-03-23T11:30:10;98959.34;;;13.75;40.33
68859;BME280;55864;49.238;8.092;2024-03-23T11:32:12;98954.94;;;13.37;40.97
68859;BME280;55864;49.238;8.092;2024-03-23T11:34:12;98947.09;;;13.20;41.71
68859;BME280;55864;49.238;8.092;2024-03-23T11:36:18;98948.63;;;13.07;40.55
68859;BME280;55864;49.238;8.092;2024-03-23T11:38:19;98942.44;;;13.31;40.61
68859;BME280;55864;49.238;8.092;2024-03-23T11:40:20;98936.34;;;13.30;41.64